Aguas Formosas, Brazil
Current Conditions -  °F | °C
As of 1:00 PM on Friday 19 Dec 2014 (Local Time) from SBPS Reporting Station
Light Rain Light Rain  
Wind Chill: 77°   Ceiling: 3000
Heat Index: 78°   Visibility: 2.5mi
Dew Point: 72°   Wind: 8mph
Humidity: 83%   Direction: 40°NE
Pressure: NA   Gusts: NA
Location:  17.08°S, 40.94°W
Report Text: SBPS 191500Z 04007KT 4000 -RA BR SCT015 SCT020 OVC030 25/22 Q1013
Loading
Personal Weather Stations






























Interactive Weather Map New forecast layout! Learn more

10-Day Weather Forecast

Advertisements
Track Severe Weather on mobile